26分钟前
罗盘
风向 的 风向 280° Cardiff International Airport 12/30
风: 13 千吨, 4 beaufort
0 500 1.500 3.000 5.000 8.000 10.000
OVC 200 ft
METAR EGFF 301220Z AUTO 28013KT 5000 -RADZ OVC002 11/11 Q1013 RERA REDZ

METAR定义 | 嵌入

24小时趋势

航班类别VFRLIFR
温度11 °C5 °C
风速19 千吨0 千吨
能见度10 公里+0 米

更多历史数据

下载我们的安卓应用程序

从你的主屏幕上轻松地访问你的航空天气。
只需一次付费,您就可以获得无广告的体验。

您会帮助我们保持Metar-Taf.com正常运行吗?
您的贡献有助于网站的进一步开发并支付费用。

没有更多广告

您是捐款5美元还是更多?然后,我们将永远不会再向您展示广告,这是我们永恒的感谢!
捐赠前先登录

METAR Cardiff International Airport

Cardiff International Airport是Cardiff,英国中的大型机场。 机场有{a,plural,=1{一条跑道} other{#跑道}}: 12/30

该报告是针对2021年11月30日 12:20, 当地时间上的Cardiff International Airport所做的。

机场观察

风来自西 (280°)方向,速度为13 千吨。

可见度为5 公里。

有乌云密布在200 ft的高度。 破损或更高的上限为200 ft。

当前天气为光 雨 细雨。 温度和风寒是11 °C。 露点为11 °C,相对湿度为100%。 海平面上的气压为1013 压力 (QNH)。 最近是雨, 细雨。

白天

今天,太阳从07:55升起,在16:09降落。 这适用于Cardiff International Airport,世界夏令时可能有所不同。 当地时间与世界标准时间之间的时差为+0 小时。 当前,没有夏令时有效。

公司介绍

我们没有关于这个机场的公司信息。

体会

到Vliegles.nl去找飞行课程,跳伞和其他飞行体验。 浏览页面,了解Cardiff International Airport附近所有可用的活动。 你也可以使用搜索功能来寻找你所在地附近的特定飞行课程、跳伞或其他飞行体验。

您是否要在网站上Cardiff International Airport飞行的天气? 阅读更多   自由!